Latest Weather Observations for Mackay

IDQ60801

Issued at 7:32 pm EST Sunday 20 August 2017 (issued every 30 minutes, with the page automatically refreshed every 10 minutes)

About weather observations | Map of weather stations | Latest weather observations for QLD | Other Formats
Station Details ID: 033119 Name: MACKAY M.O Lat: -21.12 Lon: 149.22 Height: 30.26 m
Data from the previous 72 hours. | See also: Recent months at Mackay
Date/Time
EST
Temp
°C
App
Temp
°C
Dew
Point
°C
Rel
Hum
%
Delta-T
°C
Wind Press
QNH
hPa
Press
MSL
hPa
Rain since
9am
mm
Dir  Spd
km/h
Gust
km/h
Spd
kts
Gust
kts
20/07:30pm 17.6 13.4 3.9 40 6.4 SE 15 30 8 16 1019.2 1019.1 0.0
20/07:00pm 17.5 13.5 4.8 43 6.1 SE 15 26 8 14 1018.8 1018.7 0.0
20/06:30pm 17.5 13.3 3.8 40 6.4 SSE 15 26 8 14 1018.5 1018.4 0.0
20/06:00pm 17.6 13.3 5.2 44 6.0 SE 17 30 9 16 1018.3 1018.2 0.0
20/05:30pm 17.8 13.0 4.7 42 6.3 SE 19 30 10 16 1018.2 1018.1 0.0
20/05:00pm 18.2 13.7 4.0 39 6.7 SE 17 30 9 16 1017.9 1017.8 0.0
20/04:30pm 18.4 13.7 3.1 36 7.1 SE 17 26 9 14 1017.8 1017.7 0.0
20/04:00pm 19.0 14.2 4.4 38 7.0 SE 19 32 10 17 1017.7 1017.6 0.0
20/03:30pm 18.9 14.0 4.3 38 7.0 SE 19 30 10 16 1017.7 1017.6 0.0
20/03:00pm 19.0 14.2 4.7 39 6.9 SE 19 33 10 18 1017.6 1017.5 0.0
20/02:30pm 19.2 14.3 4.9 39 6.9 SE 20 32 11 17 1017.6 1017.5 0.0
20/02:00pm 19.5 15.1 6.6 43 6.5 SE 19 32 10 17 1017.7 1017.6 0.0
20/01:30pm 19.0 14.2 5.8 42 6.5 SE 20 32 11 17 1018.1 1018.0 0.0
20/01:00pm 19.1 14.4 5.2 40 6.8 SE 19 33 10 18 1018.7 1018.6 0.0
20/12:30pm 18.5 13.1 4.7 40 6.6 SE 22 37 12 20 1019.2 1019.1 0.0
20/12:00pm 18.9 14.2 6.1 43 6.3 SE 20 37 11 20 1019.6 1019.5 0.0
20/11:30am 19.5 14.6 5.2 39 7.0 SSE 20 37 11 20 1020.0 1019.9 0.0
20/11:00am 18.8 13.3 4.2 38 6.9 SSE 22 35 12 19 1020.6 1020.5 0.0
20/10:30am 18.1 11.9 2.0 34 7.3 SSE 24 41 13 22 1021.1 1021.0 0.0
20/10:00am 18.3 12.2 3.0 36 7.1 SSE 24 39 13 21 1021.4 1021.3 0.0
20/09:39am 17.6 10.8 3.1 38 6.7 SSE 28 46 15 25 1021.5 1021.4 0.0
20/09:30am 17.2 9.4 2.0 36 6.8 SSE 32 44 17 24 1021.5 1021.4 0.0
20/09:00am 17.1 10.3 3.1 39 6.4 S 28 43 15 23 1021.3 1021.2 0.0
20/08:57am 16.7 9.6 1.6 36 6.7 S 28 46 15 25 1021.2 1021.1 0.0
20/08:30am 16.5 9.5 1.8 37 6.5 S 28 43 15 23 1021.0 1020.9 0.0
20/08:00am 15.5 9.7 2.3 41 5.9 SSW 22 35 12 19 1020.8 1020.7 0.0
20/07:30am 14.5 8.6 1.4 41 5.7 SSW 22 35 12 19 1020.7 1020.6 0.0
20/07:00am 14.1 8.8 2.0 44 5.3 SSW 19 32 10 17 1020.4 1020.3 0.0
20/06:30am 14.4 8.1 1.7 42 5.5 S 24 33 13 18 1019.8 1019.7 0.0
20/06:00am 14.3 8.1 1.9 43 5.4 S 24 33 13 18 1019.5 1019.4 0.0
20/05:30am 15.0 8.6 0.8 38 6.1 S 24 37 13 20 1019.2 1019.1 0.0
20/05:00am 15.2 8.0 0.6 37 6.2 S 28 44 15 24 1018.9 1018.8 0.0
20/04:30am 15.4 8.3 1.2 38 6.2 S 28 46 15 25 1018.7 1018.6 0.0
20/04:29am 15.4 8.3 1.5 39 6.1 S 28 46 15 25 1018.7 1018.6 0.0
20/04:00am 15.5 8.1 2.0 40 6.0 S 30 46 16 25 1018.3 1018.2 0.0
20/03:41am 15.8 8.5 2.6 41 5.9 S 30 48 16 26 1018.3 1018.2 0.0
20/03:30am 15.7 8.5 2.8 42 5.8 S 30 44 16 24 1018.2 1018.1 0.0
20/03:00am 16.0 9.2 3.1 42 5.9 S 28 43 15 23 1017.9 1017.8 0.0
20/02:30am 13.3 8.5 5.5 59 3.7 SSW 20 26 11 14 1017.9 1017.8 0.0
20/02:00am 12.9 9.1 5.8 62 3.3 SW 15 19 8 10 1018.0 1017.9 0.0
20/01:30am 12.8 9.6 6.8 67 2.9 WSW 13 15 7 8 1018.1 1018.0 0.0
20/01:00am 13.1 10.0 7.1 67 2.9 WSW 13 15 7 8 1018.1 1018.0 0.0
20/12:30am 13.4 10.5 8.3 71 2.5 WSW 13 15 7 8 1018.3 1018.2 0.0
20/12:00am 13.5 10.9 9.2 75 2.2 WSW 13 15 7 8 1018.4 1018.3 0.0
 
Date/Time
EST
Temp
°C
App
Temp
°C
Dew
Point
°C
Rel
Hum
%
Delta-T
°C
Wind Press
QNH
hPa
Press
MSL
hPa
Rain since
9am
mm
Dir  Spd
km/h
Gust
km/h
Spd
kts
Gust
kts
19/11:30pm 13.7 11.3 9.9 78 2.0 WSW 13 17 7 9 1018.5 1018.4 0.0
19/11:00pm 14.3 11.6 10.3 77 2.1 WSW 15 17 8 9 1018.5 1018.4 0.0
19/10:30pm 15.0 12.7 10.6 75 2.3 SW 13 17 7 9 1018.6 1018.5 0.0
19/10:00pm 15.2 12.7 9.6 69 2.9 SW 13 17 7 9 1018.7 1018.6 0.0
19/09:30pm 16.1 13.6 9.8 66 3.3 SW 13 17 7 9 1018.6 1018.5 0.0
19/09:00pm 16.6 14.2 10.2 66 3.4 SW 13 15 7 8 1018.5 1018.4 0.0
19/08:30pm 18.4 17.3 11.9 66 3.6 SW 9 11 5 6 1018.2 1018.1 0.0
19/08:00pm 19.1 18.6 12.8 67 3.5 SSW 7 11 4 6 1017.9 1017.8 0.0
19/07:30pm 20.0 18.7 12.5 62 4.2 SSE 11 20 6 11 1017.6 1017.5 0.0
19/07:00pm 20.5 18.8 11.2 55 5.1 SE 11 15 6 8 1017.3 1017.2 0.0
19/06:30pm 20.4 18.4 10.2 52 5.5 SE 11 17 6 9 1017.0 1016.9 0.0
19/06:00pm 20.3 18.2 9.8 51 5.6 SE 11 20 6 11 1016.6 1016.5 0.0
19/05:30pm 20.9 18.0 9.5 48 6.1 SE 15 24 8 13 1016.3 1016.2 0.0
19/05:00pm 21.4 18.9 9.6 47 6.3 SE 13 20 7 11 1016.1 1016.0 0.0
19/04:30pm 21.6 19.2 10.1 48 6.2 SE 13 20 7 11 1015.9 1015.8 0.0
19/04:00pm 21.8 18.7 10.3 48 6.3 SE 17 26 9 14 1015.3 1015.2 0.0
19/03:30pm 22.3 20.1 10.8 48 6.3 SE 13 20 7 11 1015.3 1015.2 0.0
19/03:00pm 22.7 19.7 10.8 47 6.6 SE 17 28 9 15 1015.4 1015.3 0.0
19/02:30pm 22.4 19.0 9.2 43 7.1 ESE 17 26 9 14 1015.7 1015.6 0.0
19/02:00pm 22.4 18.8 8.5 41 7.4 ESE 17 24 9 13 1016.1 1016.0 0.0
19/01:30pm 22.3 19.3 10.5 47 6.5 SE 17 28 9 15 1016.4 1016.3 0.0
19/01:00pm 22.5 19.2 9.6 44 7.0 SE 17 30 9 16 1016.9 1016.8 0.0
19/12:30pm 21.9 17.8 8.8 43 7.0 ESE 20 35 11 19 1017.4 1017.3 0.0
19/12:00pm 21.7 17.7 8.9 44 6.8 SE 20 32 11 17 1017.8 1017.7 0.0
19/11:30am 22.0 18.0 8.9 43 7.0 SE 20 35 11 19 1018.3 1018.2 0.0
19/11:00am 21.9 17.6 7.7 40 7.4 SSE 20 33 11 18 1018.8 1018.7 0.0
19/10:30am 21.5 16.0 7.7 41 7.2 SSE 26 43 14 23 1019.1 1019.0 0.0
19/10:00am 21.0 14.2 6.9 40 7.2 SSE 32 46 17 25 1019.5 1019.4 0.0
19/09:30am 21.0 13.8 5.0 35 7.9 SSE 32 50 17 27 1019.5 1019.4 0.0
19/09:25am 21.3 14.8 6.4 38 7.5 SSE 30 50 16 27 1019.5 1019.4 0.0
19/09:00am 21.0 13.3 5.4 36 7.7 SSE 35 50 19 27 1019.4 1019.3 0.0
19/08:47am 21.2 14.8 7.1 40 7.2 SSE 30 48 16 26 1019.4 1019.3 0.0
19/08:30am 21.0 14.0 5.8 37 7.6 SSE 32 46 17 25 1019.3 1019.2 0.0
19/08:00am 20.8 14.0 5.2 36 7.7 S 30 48 16 26 1019.0 1018.9 0.0
19/07:58am 20.8 13.9 4.4 34 8.0 S 30 48 16 26 1018.9 1018.8 0.0
19/07:30am 20.1 13.5 4.2 35 7.6 S 28 44 15 24 1018.7 1018.6 0.0
19/07:00am 19.6 13.1 4.9 38 7.1 S 28 43 15 23 1018.3 1018.2 0.0
19/06:31am 19.8 13.1 3.5 34 7.7 S 28 46 15 25 1017.9 1017.8 0.0
19/06:30am 19.6 13.0 4.1 36 7.4 S 28 43 15 23 1017.9 1017.8 0.0
19/06:13am 19.5 12.8 3.6 35 7.5 S 28 46 15 25 1017.8 1017.7 0.0
19/06:00am 19.7 12.4 4.6 37 7.3 S 32 46 17 25 1017.6 1017.5 0.0
19/05:30am 18.5 12.6 7.3 48 5.7 S 28 43 15 23 1017.2 1017.1 0.0
19/05:00am 17.7 13.8 10.8 64 3.7 S 22 32 12 17 1017.0 1016.9 0.0
19/04:30am 17.9 16.4 15.2 84 1.6 S 17 26 9 14 1016.7 1016.6 0.0
19/04:00am 17.6 17.5 17.0 96 0.4 SSW 13 15 7 8 1016.5 1016.4 0.0
19/03:30am 17.6 16.9 17.3 98 0.2 SSW 17 20 9 11 1016.2 1016.1 0.0
19/03:00am 18.4 18.2 17.6 95 0.5 SW 15 20 8 11 1015.9 1015.8 0.0
19/02:30am 19.3 19.9 18.5 95 0.5 WSW 13 19 7 10 1015.6 1015.5 0.0
19/02:00am 19.7 20.2 19.2 97 0.3 W 15 19 8 10 1015.7 1015.6 0.0
19/01:30am 19.0 19.4 19.0 100 0.0 WSW 15 19 8 10 1016.1 1016.0 0.0
19/01:00am 19.1 20.3 19.1 100 0.0 WSW 11 13 6 7 1016.3 1016.2 0.0
19/12:30am 19.3 21.0 19.3 100 0.0 WSW 9 15 5 8 1016.4 1016.3 0.0
19/12:00am 19.6 21.3 19.3 98 0.2 W 9 13 5 7 1016.4 1016.3 0.0
 
Date/Time
EST
Temp
°C
App
Temp
°C
Dew
Point
°C
Rel
Hum
%
Delta-T
°C
Wind Press
QNH
hPa
Press
MSL
hPa
Rain since
9am
mm
Dir  Spd
km/h
Gust
km/h
Spd
kts
Gust
kts
18/11:30pm 20.4 22.9 20.2 99 0.1 WNW 7 11 4 6 1016.6 1016.5 0.0
18/11:00pm 20.5 23.1 20.5 100 0.0 WNW 7 9 4 5 1016.7 1016.6 0.0
18/10:30pm 20.4 22.9 20.2 99 0.1 WNW 7 9 4 5 1016.7 1016.6 0.0
18/10:00pm 20.4 22.1 20.2 99 0.1 NNW 11 13 6 7 1016.6 1016.5 0.0
18/09:30pm 20.5 22.1 20.0 97 0.3 NW 11 13 6 7 1016.6 1016.5 0.0
18/09:00pm 20.9 22.7 20.4 97 0.3 NNW 11 13 6 7 1016.6 1016.5 0.0
18/08:30pm 20.9 23.1 20.4 97 0.3 NNW 9 13 5 7 1016.5 1016.4 0.0
18/08:00pm 21.0 23.2 20.3 96 0.5 N 9 11 5 6 1016.2 1016.1 0.0
18/07:30pm 21.4 23.6 20.4 94 0.6 NNW 9 13 5 7 1016.1 1016.0 0.0
18/07:00pm 21.5 24.0 20.3 93 0.8 N 7 11 4 6 1015.9 1015.8 0.0
18/06:30pm 21.9 24.5 20.4 91 1.0 N 7 13 4 7 1015.5 1015.4 0.0
18/06:00pm 22.3 24.5 20.4 89 1.2 N 9 13 5 7 1015.0 1014.9 0.0
18/05:30pm 22.8 24.5 20.1 85 1.7 N 11 19 6 10 1014.6 1014.5 0.0
18/05:00pm 23.9 25.2 20.2 80 2.4 N 13 20 7 11 1014.4 1014.3 0.0
18/04:30pm 24.4 25.1 19.7 75 3.0 N 15 20 8 11 1014.2 1014.1 0.0
18/04:00pm 25.2 26.1 20.0 73 3.4 NNE 15 22 8 12 1014.0 1013.9 0.0
18/03:30pm 26.6 28.6 20.7 70 3.9 NNE 11 19 6 10 1014.1 1014.0 0.0
18/03:00pm 26.8 28.6 20.4 68 4.2 NNE 11 19 6 10 1014.1 1014.0 0.0
18/02:30pm 27.7 29.7 20.8 66 4.6 NNE 11 17 6 9 1014.3 1014.2 0.0
18/02:00pm 27.7 29.2 21.3 68 4.3 NNE 15 22 8 12 1014.7 1014.6 0.0
18/01:30pm 27.8 29.5 20.9 66 4.6 NNE 13 20 7 11 1015.1 1015.0 0.0
18/01:00pm 28.0 29.6 20.8 65 4.8 NNE 13 24 7 13 1015.5 1015.4 0.0
18/12:30pm 28.3 30.5 21.1 65 4.8 N 11 20 6 11 1015.9 1015.8 0.0
18/12:00pm 27.8 29.7 20.6 65 4.7 N 11 20 6 11 1016.4 1016.3 0.0
18/11:30am 27.1 28.3 20.0 65 4.6 N 13 22 7 12 1016.7 1016.6 0.0
18/11:00am 27.3 29.7 20.9 68 4.2 N 9 17 5 9 1016.9 1016.8 0.0
18/10:30am 26.1 29.0 21.1 74 3.3 NW 7 13 4 7 1017.3 1017.2 0.0
18/10:00am 25.0 26.9 19.8 73 3.4 NW 9 17 5 9 1017.5 1017.4 0.0
18/09:30am 23.7 25.6 19.8 79 2.5 NNW 9 15 5 8 1017.8 1017.7 0.0
18/09:00am 23.3 25.0 20.1 82 2.1 NNW 11 17 6 9 1017.5 1017.4 0.0
18/08:30am 21.9 23.8 19.8 88 1.3 NW 9 15 5 8 1017.2 1017.1 0.0
18/08:00am 20.1 21.6 18.8 92 0.8 NNW 9 13 5 7 1017.1 1017.0 0.0
18/07:30am 18.7 21.0 18.5 99 0.1 NW 4 7 2 4 1016.7 1016.6 0.0
18/07:00am 17.6 18.9 17.6 100 0.0 W 7 11 4 6 1016.5 1016.4 0.0
18/06:30am 17.2 17.6 17.2 100 0.0 WSW 11 13 6 7 1016.2 1016.1 0.0
18/06:00am 17.2 18.0 17.2 100 0.0 WSW 9 11 5 6 1015.8 1015.7 0.0
18/05:30am 17.2 18.1 16.7 97 0.3 W 7 11 4 6 1015.2 1015.1 0.0
18/05:00am 18.2 19.7 18.0 99 0.1 WNW 7 11 4 6 1014.9 1014.8 0.0
18/04:30am 18.4 20.1 18.4 100 0.0 WNW 7 11 4 6 1014.7 1014.6 0.0
18/04:00am 18.4 20.0 18.2 99 0.1 WNW 7 9 4 5 1014.4 1014.3 0.0
18/03:30am 18.5 20.2 18.5 100 0.0 WNW 7 11 4 6 1014.4 1014.3 0.0
18/03:00am 18.2 19.3 18.0 99 0.1 NNW 9 13 5 7 1014.3 1014.2 0.0
18/02:30am 18.1 19.5 17.8 98 0.2 NNW 7 9 4 5 1014.6 1014.5 0.0
18/02:00am 18.3 19.4 18.0 98 0.2 NNW 9 11 5 6 1014.6 1014.5 0.0
18/01:30am 18.7 19.9 18.2 97 0.3 NNW 9 9 5 5 1014.8 1014.7 0.0
18/01:00am 18.9 20.6 18.4 97 0.3 NNW 7 9 4 5 1014.9 1014.8 0.0
18/12:30am 19.2 20.5 18.5 96 0.4 NW 9 11 5 6 1015.1 1015.0 0.0
18/12:00am 19.4 20.8 18.7 96 0.4 NNW 9 11 5 6 1015.1 1015.0 0.0
 
Date/Time
EST
Temp
°C
App
Temp
°C
Dew
Point
°C
Rel
Hum
%
Delta-T
°C
Wind Press
QNH
hPa
Press
MSL
hPa
Rain since
9am
mm
Dir  Spd
km/h
Gust
km/h
Spd
kts
Gust
kts
17/11:30pm 19.9 21.5 19.1 95 0.5 NNW 9 11 5 6 1015.2 1015.1 0.0
17/11:00pm 20.5 22.0 19.7 95 0.5 NNW 11 13 6 7 1015.3 1015.2 0.0
17/10:30pm 20.8 22.3 19.8 94 0.6 NNW 11 15 6 8 1015.3 1015.2 0.0
17/10:00pm 21.3 22.5 19.9 92 0.9 NNW 13 20 7 11 1015.3 1015.2 0.0
17/09:30pm 21.3 22.4 19.6 90 1.1 N 13 20 7 11 1015.2 1015.1 0.0
17/09:00pm 21.1 22.6 19.7 92 0.9 NNW 11 13 6 7 1015.2 1015.1 0.0
17/08:30pm 21.5 23.6 20.1 92 0.9 N 9 19 5 10 1015.1 1015.0 0.0
17/08:00pm 21.9 22.9 20.2 90 1.1 N 15 22 8 12 1014.9 1014.8 0.0

Other Formats:

Comma delimited format used in spreadsheet applications
http://www.bom.gov.au/fwo/IDQ60801/IDQ60801.94367.axf

JavaScript Object Notation format (JSON) in row-major order
http://www.bom.gov.au/fwo/IDQ60801/IDQ60801.94367.json